createdAt,value
2018-08-25T00:00:35.911Z,44.80
2018-08-25T00:03:04.451Z,44.80
2018-08-25T00:05:32.976Z,44.80
2018-08-25T00:08:01.524Z,44.80
2018-08-25T00:10:30.205Z,44.90
2018-08-25T00:12:58.716Z,44.80
2018-08-25T00:15:27.376Z,44.80
2018-08-25T00:17:55.888Z,44.80
2018-08-25T00:20:24.492Z,44.80
2018-08-25T00:22:53.089Z,44.70
2018-08-25T00:25:21.615Z,44.70
2018-08-25T00:27:50.435Z,44.80
2018-08-25T00:30:24.289Z,44.90
2018-08-25T00:32:53.196Z,44.90
2018-08-25T00:35:21.860Z,44.80
2018-08-25T00:37:50.371Z,44.80
2018-08-25T00:40:18.990Z,44.90
2018-08-25T00:42:47.752Z,45.00
2018-08-25T00:45:16.297Z,45.00
2018-08-25T00:47:44.851Z,45.00
2018-08-25T00:50:13.436Z,45.00
2018-08-25T00:52:42.373Z,45.10
2018-08-25T00:55:10.900Z,45.00
2018-08-25T00:57:39.396Z,45.10
2018-08-25T01:00:08.033Z,45.30
2018-08-25T01:02:37.606Z,45.20
2018-08-25T01:05:06.130Z,45.20
2018-08-25T01:07:34.793Z,45.30
2018-08-25T01:10:03.489Z,45.30
2018-08-25T01:12:32.749Z,45.20
2018-08-25T01:15:01.272Z,45.20
2018-08-25T01:17:29.839Z,45.20
2018-08-25T01:19:58.349Z,45.20
2018-08-25T01:22:27.033Z,45.20
2018-08-25T01:24:55.666Z,45.30
2018-08-25T01:27:24.628Z,45.40
2018-08-25T01:29:53.191Z,45.50
2018-08-25T01:32:21.872Z,45.50
2018-08-25T01:34:50.379Z,45.70
2018-08-25T01:37:19.419Z,45.60
2018-08-25T01:39:47.916Z,45.50
2018-08-25T01:42:17.021Z,45.50
2018-08-25T01:44:45.543Z,45.50
2018-08-25T01:47:14.184Z,45.50
2018-08-25T01:49:42.740Z,46.00
2018-08-25T01:52:11.928Z,45.50
2018-08-25T01:54:40.517Z,45.50
2018-08-25T01:57:09.046Z,45.50
2018-08-25T01:59:37.642Z,45.50
2018-08-25T02:02:06.137Z,45.60
2018-08-25T02:04:35.256Z,45.60
2018-08-25T02:07:03.767Z,45.10
2018-08-25T02:09:32.452Z,45.60
2018-08-25T02:12:01.085Z,45.60
2018-08-25T02:14:30.290Z,45.60
2018-08-25T02:16:58.831Z,44.70
2018-08-25T02:19:27.380Z,45.70
2018-08-25T02:21:56.121Z,45.70
2018-08-25T02:24:24.732Z,45.60
2018-08-25T02:26:53.365Z,45.60
2018-08-25T02:29:22.248Z,45.60
2018-08-25T02:31:50.863Z,45.50
2018-08-25T02:34:19.466Z,45.50
2018-08-25T02:36:47.979Z,45.50
2018-08-25T02:39:16.737Z,45.30
2018-08-25T02:41:45.258Z,45.50
2018-08-25T02:44:13.768Z,45.50
2018-08-25T02:46:42.276Z,45.40
2018-08-25T02:49:11.223Z,45.40
2018-08-25T02:51:39.760Z,45.50
2018-08-25T02:54:08.551Z,45.60
2018-08-25T02:56:37.092Z,46.20
2018-08-25T02:59:05.873Z,45.70
2018-08-25T03:01:34.499Z,45.80
2018-08-25T03:04:03.688Z,45.70
2018-08-25T03:06:32.203Z,45.70
2018-08-25T03:09:00.796Z,46.40
2018-08-25T03:11:29.559Z,45.90
2018-08-25T03:13:58.187Z,45.80
2018-08-25T03:16:26.705Z,45.80
2018-08-25T03:18:55.231Z,45.80
2018-08-25T03:21:23.857Z,45.80
2018-08-25T03:23:53.464Z,45.90
2018-08-25T03:26:22.204Z,45.80
2018-08-25T03:28:57.388Z,45.80
2018-08-25T03:31:26.040Z,45.70
2018-08-25T03:33:54.560Z,45.70
2018-08-25T03:36:23.104Z,45.60
2018-08-25T03:38:51.787Z,45.60
2018-08-25T03:41:20.455Z,45.60
2018-08-25T03:43:49.008Z,45.50
2018-08-25T03:46:17.527Z,45.60
2018-08-25T03:48:46.470Z,45.50
2018-08-25T03:51:14.979Z,45.50
2018-08-25T03:53:43.758Z,45.40
2018-08-25T03:56:12.375Z,45.40
2018-08-25T03:58:41.146Z,45.30
2018-08-25T04:01:09.508Z,45.30
2018-08-25T04:03:38.072Z,45.30
2018-08-25T04:06:06.442Z,45.20
2018-08-25T04:08:34.801Z,45.20
2018-08-25T04:11:04.786Z,45.20
2018-08-25T04:13:33.410Z,45.20
2018-08-25T04:16:01.912Z,45.20
2018-08-25T04:18:30.272Z,45.20
2018-08-25T04:20:58.626Z,45.20
2018-08-25T04:23:27.078Z,45.20
2018-08-25T04:25:55.425Z,45.20
2018-08-25T04:28:23.916Z,45.20
2018-08-25T04:30:52.933Z,45.20
2018-08-25T04:33:21.602Z,45.20
2018-08-25T04:35:50.312Z,45.30
2018-08-25T04:38:18.840Z,45.30
2018-08-25T04:40:47.192Z,45.40
2018-08-25T04:43:15.549Z,45.40
2018-08-25T04:45:44.061Z,45.40
2018-08-25T04:48:12.693Z,45.20
2018-08-25T04:50:41.153Z,45.40
2018-08-25T04:53:09.566Z,45.50
2018-08-25T04:55:38.107Z,45.50
2018-08-25T04:58:06.464Z,45.60
2018-08-25T05:00:34.894Z,45.60
2018-08-25T05:03:03.300Z,45.60
2018-08-25T05:05:31.798Z,45.60
2018-08-25T05:08:00.319Z,45.60
2018-08-25T05:10:29.461Z,45.60
2018-08-25T05:12:57.812Z,45.60
2018-08-25T05:15:26.225Z,45.70
2018-08-25T05:17:54.815Z,45.60
2018-08-25T05:20:23.180Z,45.80
2018-08-25T05:22:51.735Z,45.70
2018-08-25T05:25:20.075Z,45.80
2018-08-25T05:27:48.428Z,45.80
2018-08-25T05:30:17.804Z,45.80
2018-08-25T05:32:46.412Z,45.80
2018-08-25T05:35:14.789Z,45.80
2018-08-25T05:37:43.204Z,45.80
2018-08-25T05:40:11.728Z,46.40
2018-08-25T05:42:40.795Z,45.90
2018-08-25T05:45:09.176Z,45.90
2018-08-25T05:47:37.533Z,45.90
2018-08-25T05:50:05.892Z,45.90
2018-08-25T05:52:34.264Z,46.00
2018-08-25T05:55:03.198Z,46.00
2018-08-25T05:57:32.284Z,46.00
2018-08-25T06:00:00.652Z,46.00
2018-08-25T06:02:29.032Z,45.90
2018-08-25T06:04:57.587Z,45.90
2018-08-25T06:07:25.985Z,45.90
2018-08-25T06:09:54.361Z,46.00
2018-08-25T06:12:23.221Z,46.00
2018-08-25T06:14:51.784Z,46.10
2018-08-25T06:17:20.247Z,46.10
2018-08-25T06:19:48.604Z,46.30
2018-08-25T06:22:17.249Z,46.30
2018-08-25T06:24:45.692Z,46.20
2018-08-25T06:27:14.041Z,46.20
2018-08-25T06:29:42.603Z,46.30
2018-08-25T06:32:10.946Z,46.30
2018-08-25T06:34:39.772Z,46.30
2018-08-25T06:37:08.304Z,46.30
2018-08-25T06:39:37.417Z,46.30
2018-08-25T06:42:06.274Z,46.30
2018-08-25T06:44:34.905Z,46.30
2018-08-25T06:47:03.262Z,46.30
2018-08-25T06:49:32.317Z,46.40
2018-08-25T06:52:00.696Z,46.30
2018-08-25T06:54:29.199Z,46.30
2018-08-25T06:56:57.823Z,46.30
2018-08-25T06:59:27.026Z,46.40
2018-08-25T07:01:55.548Z,46.40
2018-08-25T07:04:23.909Z,46.40
2018-08-25T07:06:52.316Z,46.40
2018-08-25T07:09:20.738Z,46.40
2018-08-25T07:11:49.285Z,46.50
2018-08-25T07:14:18.381Z,46.50
2018-08-25T07:16:47.315Z,46.50
2018-08-25T07:19:15.688Z,46.50
2018-08-25T07:21:44.119Z,46.50
2018-08-25T07:24:12.530Z,46.50
2018-08-25T07:26:40.980Z,46.50
2018-08-25T07:29:09.346Z,46.70
2018-08-25T07:31:37.725Z,46.80
2018-08-25T07:34:06.077Z,46.80
2018-08-25T07:36:38.329Z,47.00
2018-08-25T07:39:10.753Z,46.90
2018-08-25T07:41:39.328Z,47.50
2018-08-25T07:44:07.920Z,47.00
2018-08-25T07:46:36.520Z,47.00
2018-08-25T07:49:05.279Z,47.00
2018-08-25T07:51:44.439Z,47.00
2018-08-25T07:54:13.045Z,47.00
2018-08-25T07:56:41.483Z,47.00
2018-08-25T07:59:09.935Z,47.00
2018-08-25T08:01:38.341Z,47.00
2018-08-25T08:04:06.860Z,47.10
2018-08-25T08:06:35.380Z,47.20
2018-08-25T08:09:05.944Z,47.20
2018-08-25T08:11:34.952Z,47.00
2018-08-25T08:14:03.511Z,47.10
2018-08-25T08:16:31.973Z,47.00
2018-08-25T08:19:01.301Z,46.90
2018-08-25T08:21:29.771Z,46.90
2018-08-25T08:23:58.272Z,47.00
2018-08-25T08:26:26.636Z,47.10
2018-08-25T08:28:55.112Z,47.00
2018-08-25T08:31:23.552Z,47.00
2018-08-25T08:33:52.152Z,47.10
2018-08-25T08:36:20.567Z,47.10
2018-08-25T08:38:48.964Z,47.10
2018-08-25T08:41:17.390Z,47.10
2018-08-25T08:43:45.846Z,47.10
2018-08-25T08:46:14.214Z,47.20
2018-08-25T08:48:42.859Z,47.20
2018-08-25T08:51:12.159Z,47.40
2018-08-25T08:53:40.563Z,47.40
2018-08-25T08:56:09.166Z,47.50
2018-08-25T08:58:38.084Z,47.40
2018-08-25T09:01:07.193Z,47.50
2018-08-25T09:03:35.596Z,47.50
2018-08-25T09:06:04.058Z,47.50
2018-08-25T09:08:32.792Z,47.80
2018-08-25T09:11:01.295Z,47.90
2018-08-25T09:13:29.848Z,48.30
2018-08-25T09:15:58.460Z,48.50
2018-08-25T09:18:27.197Z,48.70
2018-08-25T09:20:56.439Z,48.70
2018-08-25T09:23:25.001Z,49.40
2018-08-25T09:25:53.693Z,48.70
2018-08-25T09:28:22.575Z,48.50
2018-08-25T09:30:51.184Z,48.40
2018-08-25T09:33:19.598Z,48.40
2018-08-25T09:35:48.038Z,48.30
2018-08-25T09:38:17.148Z,48.30
2018-08-25T09:40:59.348Z,48.20
2018-08-25T09:43:33.066Z,48.20
2018-08-25T09:46:01.922Z,48.10
2018-08-25T09:48:30.293Z,48.00
2018-08-25T09:50:58.759Z,48.00
2018-08-25T09:53:27.204Z,47.90
2018-08-25T09:55:55.716Z,47.90
2018-08-25T09:58:24.274Z,47.80
2018-08-25T10:00:58.164Z,47.70
2018-08-25T10:03:26.575Z,47.50
2018-08-25T10:05:55.514Z,47.40
2018-08-25T10:08:23.988Z,47.20
2018-08-25T10:10:52.473Z,47.00
2018-08-25T10:13:20.818Z,46.90
2018-08-25T10:15:49.381Z,46.90
2018-08-25T10:18:17.736Z,46.80
2018-08-25T10:20:46.140Z,46.70
2018-08-25T10:23:14.562Z,46.60
2018-08-25T10:25:43.128Z,46.60
2018-08-25T10:28:12.737Z,46.60
2018-08-25T10:30:41.154Z,46.40
2018-08-25T10:33:09.577Z,46.40
2018-08-25T10:35:37.984Z,46.40
2018-08-25T10:38:06.671Z,46.50
2018-08-25T10:40:35.118Z,46.60
2018-08-25T10:43:04.037Z,46.60
2018-08-25T10:45:32.415Z,46.80
2018-08-25T10:48:00.934Z,46.80
2018-08-25T10:50:29.268Z,47.00
2018-08-25T10:52:58.100Z,47.10
2018-08-25T10:55:26.492Z,47.30
2018-08-25T10:57:54.941Z,47.50
2018-08-25T11:00:23.344Z,47.60
2018-08-25T11:02:51.705Z,47.80
2018-08-25T11:05:20.128Z,47.70
2018-08-25T11:07:48.825Z,47.80
2018-08-25T11:10:17.336Z,47.90
2018-08-25T11:12:45.699Z,48.00
2018-08-25T11:15:20.763Z,48.10
2018-08-25T11:17:49.317Z,48.40
2018-08-25T11:20:17.895Z,48.90
2018-08-25T11:22:46.849Z,49.40
2018-08-25T11:25:15.296Z,48.60
2018-08-25T11:27:43.674Z,48.40
2018-08-25T11:30:12.095Z,48.30
2018-08-25T11:32:40.848Z,48.10
2018-08-25T11:35:09.354Z,48.00
2018-08-25T11:37:37.759Z,47.90
2018-08-25T11:40:06.606Z,47.80
2018-08-25T11:42:34.993Z,47.50
2018-08-25T11:45:03.425Z,47.40
2018-08-25T11:47:32.115Z,47.30
2018-08-25T11:50:00.666Z,47.30
2018-08-25T11:52:29.074Z,47.20
2018-08-25T11:54:57.431Z,47.10
2018-08-25T11:57:25.820Z,47.10
2018-08-25T11:59:54.781Z,47.10
2018-08-25T12:02:23.198Z,47.00
2018-08-25T12:04:52.320Z,47.00
2018-08-25T12:07:20.852Z,46.90
2018-08-25T12:09:49.532Z,46.90
2018-08-25T12:12:17.974Z,46.80
2018-08-25T12:14:46.425Z,46.80
2018-08-25T12:17:14.933Z,46.80
2018-08-25T12:19:43.306Z,46.90
2018-08-25T12:22:11.737Z,46.70
2018-08-25T12:24:40.324Z,46.70
2018-08-25T12:27:08.700Z,46.50
2018-08-25T12:29:37.386Z,46.40
2018-08-25T12:32:05.768Z,46.30
2018-08-25T12:34:34.412Z,46.30
2018-08-25T12:37:02.840Z,46.30
2018-08-25T12:39:31.420Z,46.30
2018-08-25T12:41:59.804Z,46.30
2018-08-25T12:44:28.792Z,46.40
2018-08-25T12:46:57.438Z,47.00
2018-08-25T12:49:26.012Z,46.40
2018-08-25T12:51:54.992Z,46.30
2018-08-25T12:54:23.687Z,46.30
2018-08-25T12:56:52.667Z,46.20
2018-08-25T12:59:21.388Z,46.00
2018-08-25T13:01:50.110Z,45.90
2018-08-25T13:04:18.580Z,45.80
2018-08-25T13:06:47.788Z,45.80
2018-08-25T13:09:16.733Z,45.70
2018-08-25T13:11:45.514Z,45.60
2018-08-25T13:14:14.060Z,45.50
2018-08-25T13:16:42.448Z,45.30
2018-08-25T13:19:11.713Z,45.30
2018-08-25T13:21:40.387Z,45.30
2018-08-25T13:24:09.073Z,45.20
2018-08-25T13:26:38.533Z,45.20
2018-08-25T13:29:07.620Z,45.00
2018-08-25T13:31:36.168Z,44.90
2018-08-25T13:34:04.652Z,44.80
2018-08-25T13:36:33.443Z,44.80
2018-08-25T13:39:02.275Z,44.70
2018-08-25T13:41:30.707Z,44.70
2018-08-25T13:43:59.188Z,44.70
2018-08-25T13:46:28.131Z,44.60
2018-08-25T13:48:57.769Z,44.50
2018-08-25T13:51:26.732Z,45.10
2018-08-25T13:53:56.072Z,44.50
2018-08-25T13:56:24.489Z,44.60
2018-08-25T13:58:53.360Z,44.60
2018-08-25T14:01:22.319Z,44.70
2018-08-25T14:03:50.739Z,44.70
2018-08-25T14:06:19.655Z,44.70
2018-08-25T14:08:48.764Z,44.70
2018-08-25T14:11:18.051Z,44.80
2018-08-25T14:13:47.839Z,44.80
2018-08-25T14:16:16.725Z,44.80
2018-08-25T14:18:46.564Z,44.90
2018-08-25T14:21:15.055Z,44.90
2018-08-25T14:23:44.710Z,45.00
2018-08-25T14:26:14.624Z,45.00
2018-08-25T14:28:43.085Z,45.00
2018-08-25T14:31:12.018Z,45.00
2018-08-25T14:33:40.491Z,45.70
2018-08-25T14:36:09.179Z,45.20
2018-08-25T14:38:37.632Z,45.30
2018-08-25T14:41:06.078Z,45.40
2018-08-25T14:43:34.895Z,45.40
2018-08-25T14:46:05.077Z,45.50
2018-08-25T14:48:33.594Z,45.70
2018-08-25T14:51:02.445Z,45.90
2018-08-25T14:53:31.079Z,46.10
2018-08-25T14:56:00.113Z,46.10
2018-08-25T14:58:28.527Z,46.20
2018-08-25T19:28:24.806Z,45.70
2018-08-25T19:30:53.763Z,48.80
2018-08-25T19:33:23.674Z,49.10
2018-08-25T19:35:52.766Z,48.70
2018-08-25T19:38:22.318Z,48.40
2018-08-25T19:40:51.446Z,47.90
2018-08-25T19:43:20.436Z,47.60
2018-08-25T19:45:49.496Z,47.30
2018-08-25T19:48:18.425Z,47.10
2018-08-25T19:50:47.521Z,47.00
2018-08-25T19:53:16.339Z,47.00
2018-08-25T19:55:45.552Z,46.90
2018-08-25T19:58:14.485Z,47.50
2018-08-25T20:00:43.237Z,47.50
2018-08-25T20:03:12.317Z,48.20
2018-08-25T20:05:41.087Z,49.40
2018-08-25T20:08:09.781Z,49.10
2018-08-25T20:10:39.433Z,48.70
2018-08-25T20:13:08.188Z,48.80
2018-08-25T20:15:37.614Z,48.40
2018-08-25T20:18:06.075Z,48.80
2018-08-25T20:20:34.954Z,48.70
2018-08-25T20:23:03.975Z,48.60
2018-08-25T20:25:32.871Z,48.20
2018-08-25T20:28:02.100Z,48.10
2018-08-25T20:30:30.844Z,47.90
2018-08-25T20:32:59.941Z,47.80
2018-08-25T20:35:28.789Z,47.60
2018-08-25T20:37:57.301Z,47.60
2018-08-25T20:40:25.810Z,47.50
2018-08-25T20:42:54.249Z,47.40
2018-08-25T20:45:23.030Z,47.40
2018-08-25T20:47:51.781Z,47.30
2018-08-25T20:50:20.430Z,47.30
2018-08-25T20:52:49.398Z,47.10
2018-08-25T20:55:18.026Z,47.10
2018-08-25T20:57:46.548Z,47.00
2018-08-25T21:00:15.917Z,47.00
2018-08-25T21:02:45.342Z,47.20
2018-08-25T21:05:13.805Z,47.50
2018-08-25T21:07:42.549Z,47.30
2018-08-25T21:10:11.084Z,47.20
2018-08-25T21:12:39.646Z,47.00
2018-08-25T21:15:08.133Z,46.80
2018-08-25T21:17:36.675Z,46.60
2018-08-25T21:20:05.331Z,46.60
2018-08-25T21:22:33.751Z,46.60
2018-08-25T21:25:04.098Z,47.00
2018-08-25T21:27:32.591Z,47.20
2018-08-25T21:30:01.133Z,47.00
2018-08-25T21:32:29.629Z,46.90
2018-08-25T21:34:58.057Z,46.70
2018-08-25T21:37:26.556Z,46.60
2018-08-25T21:39:55.107Z,46.50
2018-08-25T21:42:23.595Z,46.50
2018-08-25T21:44:52.099Z,46.40
2018-08-25T21:47:20.728Z,46.40
2018-08-25T21:49:49.316Z,46.30
2018-08-25T21:52:17.737Z,46.30
2018-08-25T21:54:46.205Z,46.20
2018-08-25T21:57:15.183Z,46.10
2018-08-25T21:59:43.629Z,46.10
2018-08-25T22:02:16.676Z,46.10
2018-08-25T22:04:45.344Z,46.00
2018-08-25T22:07:13.898Z,45.90
2018-08-25T22:09:42.734Z,46.00
2018-08-25T22:12:11.477Z,46.00
2018-08-25T22:14:40.062Z,45.90
2018-08-25T22:17:08.921Z,45.80
2018-08-25T22:19:37.458Z,46.00
2018-08-25T22:22:06.094Z,45.80
2018-08-25T22:24:34.712Z,45.80
2018-08-25T22:27:03.271Z,45.70
2018-08-25T22:29:31.689Z,45.80
2018-08-25T22:32:00.220Z,45.70
2018-08-25T22:34:28.634Z,45.80
2018-08-25T22:36:57.212Z,45.80
2018-08-25T22:39:25.703Z,45.80
2018-08-25T22:41:54.166Z,45.90
2018-08-25T22:44:22.576Z,45.90
2018-08-25T22:46:51.145Z,45.90
2018-08-25T22:49:19.952Z,45.90
2018-08-25T22:51:48.451Z,45.80
2018-08-25T22:54:16.911Z,45.70
2018-08-25T22:56:45.385Z,45.70
2018-08-25T22:59:13.828Z,45.70
2018-08-25T23:01:42.318Z,45.70
2018-08-25T23:04:10.780Z,45.70
2018-08-25T23:06:39.424Z,45.70
2018-08-25T23:09:09.011Z,45.80
2018-08-25T23:11:37.672Z,45.70
2018-08-25T23:14:06.365Z,45.70
2018-08-25T23:16:35.610Z,45.60
2018-08-25T23:19:04.172Z,45.70
2018-08-25T23:21:32.665Z,45.70
2018-08-25T23:24:01.190Z,45.80
2018-08-25T23:26:29.650Z,45.80
2018-08-25T23:28:58.181Z,45.70
2018-08-25T23:31:26.744Z,45.90
2018-08-25T23:33:55.190Z,45.70
2018-08-25T23:36:23.613Z,45.70
2018-08-25T23:38:52.052Z,45.70
2018-08-25T23:41:20.576Z,45.80
2018-08-25T23:43:49.069Z,45.70
2018-08-25T23:46:17.526Z,45.70
2018-08-25T23:48:46.050Z,45.60
2018-08-25T23:51:14.529Z,45.60
2018-08-25T23:53:42.964Z,45.70
2018-08-25T23:56:11.392Z,45.70
2018-08-25T23:58:39.872Z,45.70
